PWSweather.com
Personal Weather Stations
Station Observations
HAJERN
Hajeren, HvittingfossNO 3647

HajerenHvittingfossNO 3647

Lat: 59.54314324, Lon: 9.95778703

Elevation: 1320

Station Type: Fine Ofset WS 1080

Latest ConditionsUpdated 11:30:02 AM GMT+01:01 Sunday, Feb 17, 2019
Currently Today's Max Today's Min Today's Average
Temperature 34.5°F1.4°C 34.5°F1.4°C 28.8°F-1.8°C 31.1°F-0.5°C
Dew Point 34.3°F1.3°C 34.3°F1.3°C 28.5°F-1.9°C 30.9°F-0.6°C
Winds 0.4 mph N0.6 kmh N 2.2 mph -3.5 kmh - - 0.4 mph 0.6 kmh
Wind Gusts 1.6 mph2.6 kmh 5.4 mph8.7 kmh - -
Humidity 99% 99% 99% 99%
Pressure 29.41 in995.9 mb 29.41 in995.9 mb 29.29 in991.9 mb -
Hour Temp Dew Point Humidity Winds Wind Gusts Pressure Precip Precip Rate Daily Precip Total
11:30 AM 34.5°F1.4°C 34.3°F1.3°C 99% 0.4 mph N0.6 kmh N 1.6 mph2.6 kmh 29.41 in995.9 mb 0.00 in0.0 mm 0.00 in0.0 mm 0.00 in0.0 mm
11:00 AM 33.6°F0.9°C 33.4°F0.8°C 99% 0.6 mph NNE1.0 kmh NNE 3.1 mph5.0 kmh 29.39 in995.3 mb 0.00 in0.0 mm 0.00 in0.0 mm 0.00 in0.0 mm
10:30 AM 33.6°F0.9°C 33.4°F0.8°C 99% Calm Calm -- 29.40 in995.6 mb 0.00 in0.0 mm 0.00 in0.0 mm 0.00 in0.0 mm
10:00 AM 32.5°F0.3°C 32.3°F0.2°C 99% 0.3 mph N0.5 kmh N 3.1 mph5.0 kmh 29.39 in995.3 mb 0.00 in0.0 mm 0.00 in0.0 mm 0.00 in0.0 mm
09:30 AM 32.0°F0.0°C 31.8°F-0.1°C 99% 2.2 mph NNW3.5 kmh NNW 4.5 mph7.2 kmh 29.40 in995.6 mb 0.00 in0.0 mm 0.00 in0.0 mm 0.00 in0.0 mm
09:00 AM 31.6°F-0.2°C 31.4°F-0.3°C 99% 1.6 mph NNW2.6 kmh NNW 5.4 mph8.7 kmh 29.39 in995.3 mb 0.00 in0.0 mm 0.00 in0.0 mm 0.00 in0.0 mm
08:30 AM 31.3°F-0.4°C 31.0°F-0.6°C 99% Calm Calm -- 29.39 in995.3 mb 0.00 in0.0 mm 0.00 in0.0 mm 0.00 in0.0 mm
08:00 AM 30.9°F-0.6°C 30.7°F-0.7°C 99% Calm Calm -- 29.38 in994.9 mb 0.00 in0.0 mm 0.00 in0.0 mm 0.00 in0.0 mm
07:30 AM 30.6°F-0.8°C 30.3°F-0.9°C 99% 0.3 mph NE0.5 kmh NE 2.2 mph3.5 kmh 29.36 in994.2 mb 0.00 in0.0 mm 0.00 in0.0 mm 0.00 in0.0 mm
07:00 AM 30.2°F-1.0°C 30.0°F-1.1°C 99% Calm Calm -- 29.36 in994.2 mb 0.00 in0.0 mm 0.00 in0.0 mm 0.00 in0.0 mm
06:30 AM 30.0°F-1.1°C 29.8°F-1.2°C 99% 1.6 mph NE2.6 kmh NE 3.8 mph6.1 kmh 29.35 in993.9 mb 0.00 in0.0 mm 0.00 in0.0 mm 0.00 in0.0 mm
06:00 AM 30.7°F-0.7°C 30.5°F-0.8°C 99% Calm Calm -- 29.35 in993.9 mb 0.00 in0.0 mm 0.00 in0.0 mm 0.00 in0.0 mm
05:30 AM 31.1°F-0.5°C 30.9°F-0.6°C 99% 0.3 mph NNW0.5 kmh NNW 1.6 mph2.6 kmh 29.34 in993.6 mb 0.00 in0.0 mm 0.00 in0.0 mm 0.00 in0.0 mm
05:00 AM 31.1°F-0.5°C 30.9°F-0.6°C 99% 0.5 mph NNE0.8 kmh NNE 3.1 mph5.0 kmh 29.34 in993.6 mb 0.00 in0.0 mm 0.00 in0.0 mm 0.00 in0.0 mm
04:30 AM 29.8°F-1.2°C 29.6°F-1.3°C 99% Calm Calm -- 29.33 in993.2 mb 0.00 in0.0 mm 0.00 in0.0 mm 0.00 in0.0 mm
04:00 AM 28.8°F-1.8°C 28.5°F-1.9°C 99% Calm Calm -- 29.32 in992.9 mb 0.00 in0.0 mm 0.00 in0.0 mm 0.00 in0.0 mm
03:30 AM 29.1°F-1.6°C 28.9°F-1.7°C 99% Calm Calm -- 29.32 in992.9 mb 0.00 in0.0 mm 0.00 in0.0 mm 0.00 in0.0 mm
03:00 AM 28.9°F-1.7°C 28.7°F-1.8°C 99% Calm Calm -- 29.33 in993.2 mb 0.00 in0.0 mm 0.00 in0.0 mm 0.00 in0.0 mm
02:30 AM 29.5°F-1.4°C 29.2°F-1.6°C 99% Calm Calm -- 29.32 in992.9 mb 0.00 in0.0 mm 0.00 in0.0 mm 0.00 in0.0 mm
02:00 AM 30.0°F-1.1°C 29.8°F-1.2°C 99% Calm Calm -- 29.31 in992.6 mb 0.00 in0.0 mm 0.00 in0.0 mm 0.00 in0.0 mm
01:30 AM 30.6°F-0.8°C 30.3°F-0.9°C 99% Calm Calm -- 29.31 in992.6 mb 0.00 in0.0 mm 0.00 in0.0 mm 0.00 in0.0 mm
01:00 AM 31.5°F-0.3°C 31.2°F-0.4°C 99% Calm Calm -- 29.31 in992.6 mb 0.00 in0.0 mm 0.00 in0.0 mm 0.00 in0.0 mm
12:30 AM 31.1°F-0.5°C 30.9°F-0.6°C 99% 1.6 mph E2.6 kmh E 3.1 mph5.0 kmh 29.30 in992.2 mb 0.00 in0.0 mm 0.00 in0.0 mm 0.00 in0.0 mm
12:00 AM 32.9°F0.5°C 32.7°F0.4°C 99% 0.5 mph ENE0.8 kmh ENE 3.8 mph6.1 kmh 29.29 in991.9 mb 0.00 in0.0 mm 0.00 in0.0 mm 0.00 in0.0 mm